createdAt,value
2018-02-05T00:01:32.034Z,102027.09
2018-02-05T00:03:59.429Z,102022.87
2018-02-05T00:06:26.830Z,102026.30
2018-02-05T00:08:54.264Z,102026.28
2018-02-05T00:11:21.709Z,102024.50
2018-02-05T00:13:49.112Z,102024.60
2018-02-05T00:16:16.534Z,102025.02
2018-02-05T00:18:43.931Z,102027.27
2018-02-05T00:21:11.313Z,102028.63
2018-02-05T00:23:38.741Z,102032.04
2018-02-05T00:26:06.126Z,102025.98
2018-02-05T00:28:33.523Z,102035.55
2018-02-05T00:31:00.915Z,102036.38
2018-02-05T00:33:28.320Z,102038.53
2018-02-05T00:35:55.780Z,102044.20
2018-02-05T00:38:23.225Z,102042.91
2018-02-05T00:40:50.610Z,102041.62
2018-02-05T00:43:18.007Z,102048.96
2018-02-05T00:45:45.411Z,102045.06
2018-02-05T00:48:12.808Z,102045.05
2018-02-05T00:50:40.186Z,102048.58
2018-02-05T00:53:07.593Z,102056.42
2018-02-05T00:55:34.981Z,102047.72
2018-02-05T00:58:02.462Z,102054.17
2018-02-05T01:00:29.933Z,102065.06
2018-02-05T01:02:57.315Z,102064.63
2018-02-05T01:05:24.710Z,102063.79
2018-02-05T01:07:52.096Z,102066.86
2018-02-05T01:10:19.543Z,102070.25
2018-02-05T01:12:46.935Z,102070.34
2018-02-05T01:15:14.318Z,102071.61
2018-02-05T01:17:41.698Z,102071.64
2018-02-05T01:20:09.090Z,102077.70
2018-02-05T01:22:36.519Z,102077.33
2018-02-05T01:25:03.974Z,102081.23
2018-02-05T01:27:31.368Z,102072.09
2018-02-05T01:29:58.765Z,102077.41
2018-02-05T01:32:26.152Z,102077.84
2018-02-05T01:34:53.552Z,102077.84
2018-02-05T01:37:20.946Z,102073.52
2018-02-05T01:39:48.419Z,102082.62
2018-02-05T01:42:15.806Z,102081.73
2018-02-05T01:44:43.323Z,102075.27
2018-02-05T01:47:10.706Z,102086.13
2018-02-05T01:49:38.110Z,102089.59
2018-02-05T01:52:05.511Z,102090.05
2018-02-05T01:54:32.919Z,102089.62
2018-02-05T01:57:00.315Z,102090.92
2018-02-05T01:59:27.694Z,102097.02
2018-02-05T02:01:55.207Z,102100.50
2018-02-05T02:04:22.658Z,102097.46
2018-02-05T02:06:50.062Z,102097.91
2018-02-05T02:09:17.486Z,102098.77
2018-02-05T02:11:44.878Z,102104.42
2018-02-05T02:14:12.270Z,102113.53
2018-02-05T02:16:39.740Z,102113.55
2018-02-05T02:19:07.126Z,102113.12
2018-02-05T02:21:34.536Z,102114.84
2018-02-05T02:24:01.918Z,102117.47
2018-02-05T02:26:29.318Z,102119.18
2018-02-05T02:28:56.707Z,102125.70
2018-02-05T02:31:24.110Z,102118.30
2018-02-05T02:33:51.506Z,102129.61
2018-02-05T02:36:18.910Z,102125.69
2018-02-05T02:38:46.351Z,102124.83
2018-02-05T02:41:13.751Z,102121.78
2018-02-05T02:43:41.247Z,102123.08
2018-02-05T02:46:08.643Z,102130.89
2018-02-05T02:48:36.031Z,102123.51
2018-02-05T02:51:03.418Z,102134.80
2018-02-05T02:53:30.815Z,102134.80
2018-02-05T02:55:58.241Z,102136.94
2018-02-05T02:58:25.670Z,102136.94
2018-02-05T03:00:53.058Z,102140.41
2018-02-05T03:03:20.498Z,102142.59
2018-02-05T03:05:47.877Z,102139.11
2018-02-05T03:08:15.276Z,102146.47
2018-02-05T03:10:42.751Z,102153.02
2018-02-05T03:13:10.145Z,102153.45
2018-02-05T03:15:37.559Z,102152.55
2018-02-05T03:18:04.963Z,102156.91
2018-02-05T03:20:32.342Z,102152.16
2018-02-05T03:22:59.824Z,102160.83
2018-02-05T03:25:27.214Z,102162.55
2018-02-05T03:27:54.634Z,102164.75
2018-02-05T03:30:22.027Z,102161.27
2018-02-05T03:32:49.432Z,102164.72
2018-02-05T03:35:16.818Z,102166.92
2018-02-05T03:37:44.194Z,102168.25
2018-02-05T03:40:11.605Z,102169.97
2018-02-05T03:42:39.004Z,102168.22
2018-02-05T03:45:06.383Z,102167.34
2018-02-05T03:47:33.880Z,102159.53
2018-02-05T03:50:01.307Z,102171.23
2018-02-05T03:52:28.751Z,102171.70
2018-02-05T03:54:56.154Z,102172.98
2018-02-05T03:57:23.586Z,102177.77
2018-02-05T03:59:51.046Z,102184.30
2018-02-05T04:02:18.893Z,102180.39
2018-02-05T04:04:46.374Z,102186.91
2018-02-05T04:07:15.549Z,102188.66
2018-02-05T04:09:42.946Z,102187.77
2018-02-05T04:12:10.378Z,102192.98
2018-02-05T04:14:37.774Z,102195.59
2018-02-05T04:17:06.001Z,102193.86
2018-02-05T04:19:33.382Z,102192.14
2018-02-05T04:22:00.775Z,102189.53
2018-02-05T04:24:28.236Z,102193.88
2018-02-05T04:26:55.610Z,102185.19
2018-02-05T04:29:23.022Z,102193.88
2018-02-05T04:31:50.434Z,102194.74
2018-02-05T04:34:17.831Z,102199.08
2018-02-05T04:36:45.227Z,102200.38
2018-02-05T04:39:12.610Z,102212.55
2018-02-05T04:41:40.059Z,102213.84
2018-02-05T04:44:07.445Z,102221.22
2018-02-05T04:46:34.866Z,102227.72
2018-02-05T04:49:02.262Z,102231.19
2018-02-05T04:51:29.664Z,102232.50
2018-02-05T04:53:57.357Z,102229.45
2018-02-05T04:56:24.747Z,102232.05
2018-02-05T04:58:52.129Z,102233.33
2018-02-05T05:01:19.602Z,102228.12
2018-02-05T05:03:47.068Z,102236.80
2018-02-05T05:06:14.471Z,102233.73
2018-02-05T05:08:41.869Z,102238.53
2018-02-05T05:11:09.255Z,102226.37
2018-02-05T05:13:36.655Z,102230.27
2018-02-05T05:16:04.052Z,102231.59
2018-02-05T05:18:31.506Z,102229.84
2018-02-05T05:20:58.894Z,102227.25
2018-02-05T05:23:26.300Z,102229.41
2018-02-05T05:25:53.674Z,102230.66
2018-02-05T05:28:21.080Z,102226.77
2018-02-05T05:30:48.462Z,102230.25
2018-02-05T05:33:15.855Z,102228.52
2018-02-05T05:35:43.250Z,102224.64
2018-02-05T05:38:10.650Z,102232.45
2018-02-05T05:40:38.048Z,102230.69
2018-02-05T05:43:05.544Z,102228.98
2018-02-05T05:45:32.926Z,102234.58
2018-02-05T05:48:00.321Z,102239.34
2018-02-05T05:50:27.707Z,102229.34
2018-02-05T05:52:55.097Z,102235.42
2018-02-05T05:55:22.485Z,102241.97
2018-02-05T05:57:49.887Z,102236.32
2018-02-05T06:00:17.275Z,102241.55
2018-02-05T06:02:44.680Z,102243.30
2018-02-05T06:05:12.073Z,102248.08
2018-02-05T06:07:39.509Z,102245.06
2018-02-05T06:10:06.850Z,102245.49
2018-02-05T06:12:34.303Z,102245.45
2018-02-05T06:15:01.717Z,102249.38
2018-02-05T06:17:29.114Z,102247.66
2018-02-05T06:19:56.501Z,102251.57
2018-02-05T06:22:23.927Z,102257.59
2018-02-05T06:24:51.309Z,102251.96
2018-02-05T06:27:18.700Z,102249.80
2018-02-05T06:29:46.092Z,102255.88
2018-02-05T06:32:13.479Z,102247.20
2018-02-05T06:34:40.899Z,102254.17
2018-02-05T06:37:08.295Z,102256.38
2018-02-05T06:39:35.686Z,102263.73
2018-02-05T06:42:03.168Z,102265.93
2018-02-05T06:44:30.561Z,102262.89
2018-02-05T06:46:57.971Z,102267.64
2018-02-05T06:49:25.359Z,102275.48
2018-02-05T06:52:04.676Z,102276.25
2018-02-05T06:54:43.807Z,102278.86
2018-02-05T06:57:11.194Z,102276.25
2018-02-05T06:59:38.589Z,102282.31
2018-02-05T07:02:05.979Z,102286.27
2018-02-05T07:04:33.414Z,102287.13
2018-02-05T07:07:00.793Z,102279.79
2018-02-05T07:09:28.195Z,102284.13
2018-02-05T07:11:55.582Z,102285.47
2018-02-05T07:14:22.973Z,102288.53
2018-02-05T07:16:50.354Z,102288.50
2018-02-05T07:19:17.738Z,102282.41
2018-02-05T07:21:45.135Z,102284.59
2018-02-05T07:24:12.518Z,102290.23
2018-02-05T07:26:39.918Z,102288.48
2018-02-05T07:29:07.307Z,102290.68
2018-02-05T07:31:34.706Z,102289.38
2018-02-05T07:34:02.091Z,102286.36
2018-02-05T07:36:29.484Z,102288.98
2018-02-05T07:38:56.977Z,102287.22
2018-02-05T07:41:24.362Z,102285.94
2018-02-05T07:43:51.787Z,102283.75
2018-02-05T07:46:19.177Z,102295.91
2018-02-05T07:48:46.560Z,102291.98
2018-02-05T07:51:14.054Z,102294.61
2018-02-05T07:53:41.439Z,102299.39
2018-02-05T07:56:08.870Z,102295.91
2018-02-05T07:58:36.259Z,102291.98
2018-02-05T08:01:03.659Z,102297.64
2018-02-05T08:03:31.042Z,102288.95
2018-02-05T08:05:58.426Z,102295.91
2018-02-05T08:08:25.819Z,102289.84
2018-02-05T08:10:53.294Z,102292.44
2018-02-05T08:13:20.709Z,102288.54
2018-02-05T08:15:48.094Z,102298.96
2018-02-05T08:18:15.482Z,102291.54
2018-02-05T08:20:42.867Z,102289.81
2018-02-05T08:23:10.270Z,102292.85
2018-02-05T08:25:37.718Z,102295.45
2018-02-05T08:28:05.182Z,102294.63
2018-02-05T08:30:32.639Z,102300.70
2018-02-05T08:33:00.026Z,102296.79
2018-02-05T08:35:27.415Z,102298.52
2018-02-05T08:37:54.812Z,102295.06
2018-02-05T08:40:22.200Z,102291.58
2018-02-05T08:42:49.590Z,102294.62
2018-02-05T08:45:16.965Z,102293.75
2018-02-05T08:47:44.346Z,102295.92
2018-02-05T08:50:11.773Z,102295.06
2018-02-05T08:52:39.171Z,102298.50
2018-02-05T08:55:06.554Z,102295.91
2018-02-05T08:57:34.042Z,102303.71
2018-02-05T09:00:01.433Z,102292.02
2018-02-05T09:02:28.853Z,102292.03
2018-02-05T09:04:56.251Z,102300.69
2018-02-05T09:07:23.661Z,102302.45
2018-02-05T09:09:51.119Z,102297.23
2018-02-05T09:12:18.499Z,102300.70
2018-02-05T09:14:45.895Z,102304.59
2018-02-05T09:17:13.398Z,102303.76
2018-02-05T09:19:40.833Z,102309.39
2018-02-05T09:22:08.213Z,102305.45
2018-02-05T09:24:35.590Z,102304.14
2018-02-05T09:27:02.987Z,102304.18
2018-02-05T09:29:30.373Z,102305.48
2018-02-05T09:31:57.767Z,102311.13
2018-02-05T09:34:25.163Z,102300.71
2018-02-05T09:36:52.552Z,102302.42
2018-02-05T09:39:19.940Z,102298.52
2018-02-05T09:41:47.341Z,102297.66
2018-02-05T09:44:14.788Z,102299.40
2018-02-05T09:46:42.178Z,102292.89
2018-02-05T09:49:09.587Z,102299.84
2018-02-05T09:51:37.002Z,102297.22
2018-02-05T09:54:04.406Z,102298.09
2018-02-05T09:56:31.797Z,102297.23
2018-02-05T09:58:59.192Z,102299.41
2018-02-05T10:01:26.582Z,102289.83
2018-02-05T10:03:53.965Z,102292.45
2018-02-05T10:06:21.361Z,102286.80
2018-02-05T10:08:48.761Z,102290.20
2018-02-05T10:11:16.192Z,102288.02
2018-02-05T10:13:43.543Z,102285.78
2018-02-05T10:16:10.944Z,102291.44
2018-02-05T10:18:38.328Z,102291.00
2018-02-05T10:21:05.807Z,102290.06
2018-02-05T10:23:33.270Z,102296.62
2018-02-05T10:26:00.675Z,102288.38
2018-02-05T10:28:28.067Z,102281.88
2018-02-05T10:30:55.466Z,102281.45
2018-02-05T10:33:22.854Z,102275.82
2018-02-05T10:35:50.242Z,102271.92
2018-02-05T10:38:17.642Z,102278.47
2018-02-05T10:40:45.030Z,102281.97
2018-02-05T10:43:12.512Z,102275.45
2018-02-05T10:45:39.965Z,102280.19
2018-02-05T10:48:07.361Z,102282.40
2018-02-05T10:50:34.745Z,102281.97
2018-02-05T10:53:02.138Z,102272.86
2018-02-05T10:55:29.585Z,102277.63
2018-02-05T10:57:56.982Z,102276.77
2018-02-05T11:00:24.366Z,102274.14
2018-02-05T11:02:51.766Z,102274.98
2018-02-05T11:05:19.146Z,102274.96
2018-02-05T11:07:46.547Z,102268.42
2018-02-05T11:10:13.928Z,102267.55
2018-02-05T11:12:41.323Z,102268.78
2018-02-05T11:15:08.738Z,102277.50
2018-02-05T11:17:36.134Z,102269.70
2018-02-05T11:20:03.522Z,102267.55
2018-02-05T11:22:30.908Z,102275.43
2018-02-05T11:24:58.305Z,102269.78
2018-02-05T11:27:25.739Z,102264.58
2018-02-05T11:29:53.126Z,102262.33
2018-02-05T11:32:20.506Z,102263.16
2018-02-05T11:34:47.902Z,102263.55
2018-02-05T11:37:15.290Z,102259.63
2018-02-05T11:39:42.673Z,102260.97
2018-02-05T11:42:10.054Z,102255.73
2018-02-05T11:44:37.454Z,102252.68
2018-02-05T11:47:04.938Z,102254.84
2018-02-05T11:49:32.334Z,102250.50
2018-02-05T11:51:59.718Z,102243.46
2018-02-05T11:54:27.210Z,102245.12
2018-02-05T11:56:54.663Z,102237.71
2018-02-05T11:59:22.064Z,102232.44
2018-02-05T12:01:49.477Z,102225.55
2018-02-05T12:04:16.933Z,102226.34
2018-02-05T12:06:44.379Z,102225.12
2018-02-05T12:09:11.761Z,102222.92
2018-02-05T12:11:39.166Z,102222.03
2018-02-05T12:14:06.582Z,102226.37
2018-02-05T12:16:33.978Z,102222.09
2018-02-05T12:19:01.368Z,102220.34
2018-02-05T12:21:28.758Z,102217.77
2018-02-05T12:23:56.144Z,102218.64
2018-02-05T12:26:23.543Z,102217.02
2018-02-05T12:28:51.210Z,102214.47
2018-02-05T12:31:18.606Z,102217.52
2018-02-05T12:33:45.992Z,102205.34
2018-02-05T12:36:13.543Z,102200.95
2018-02-05T12:38:40.919Z,102201.42
2018-02-05T12:41:08.315Z,102197.50
2018-02-05T12:43:35.714Z,102192.25
2018-02-05T12:46:03.105Z,102194.84
2018-02-05T12:48:30.491Z,102194.48
2018-02-05T12:50:57.896Z,102191.50
2018-02-05T12:53:25.272Z,102189.27
2018-02-05T12:55:52.654Z,102186.27
2018-02-05T12:58:20.043Z,102188.41
2018-02-05T13:04:09.934Z,102181.48
2018-02-05T13:06:42.202Z,102180.21
2018-02-05T13:09:09.671Z,102174.12
2018-02-05T13:11:37.058Z,102171.92
2018-02-05T13:14:04.493Z,102174.13
2018-02-05T13:16:31.833Z,102172.84
2018-02-05T13:18:59.218Z,102172.37
2018-02-05T13:21:27.410Z,102165.86
2018-02-05T13:23:54.804Z,102165.87
2018-02-05T13:26:22.202Z,102167.17
2018-02-05T13:28:49.591Z,102166.73
2018-02-05T13:31:17.087Z,102158.47
2018-02-05T13:33:44.490Z,102153.70
2018-02-05T13:36:11.891Z,102153.69
2018-02-05T13:38:39.278Z,102148.03
2018-02-05T13:41:06.667Z,102148.45
2018-02-05T13:43:34.053Z,102144.97
2018-02-05T13:46:02.255Z,102145.86
2018-02-05T13:48:30.558Z,102135.84
2018-02-05T13:50:57.967Z,102137.59
2018-02-05T13:53:25.441Z,102136.74
2018-02-05T13:55:52.866Z,102137.13
2018-02-05T13:58:20.262Z,102138.37
2018-02-05T14:00:47.647Z,102129.77
2018-02-05T14:03:15.038Z,102130.22
2018-02-05T14:05:42.426Z,102128.92
2018-02-05T14:08:09.817Z,102126.27
2018-02-05T14:10:37.198Z,102126.69
2018-02-05T14:13:04.587Z,102119.30
2018-02-05T14:15:31.974Z,102122.69
2018-02-05T14:17:59.368Z,102124.05
2018-02-05T14:20:26.758Z,102121.83
2018-02-05T14:22:54.183Z,102114.31
2018-02-05T14:25:21.568Z,102112.52
2018-02-05T14:27:48.945Z,102111.52
2018-02-05T14:30:16.442Z,102104.06
2018-02-05T14:32:43.834Z,102098.72
2018-02-05T14:35:11.238Z,102090.05
2018-02-05T14:37:38.623Z,102091.59
2018-02-05T14:40:06.014Z,102083.05
2018-02-05T14:42:33.410Z,102080.77
2018-02-05T14:45:00.790Z,102081.25
2018-02-05T14:47:28.174Z,102076.47
2018-02-05T14:49:55.596Z,102075.19
2018-02-05T14:52:22.982Z,102071.63
2018-02-05T14:54:50.383Z,102076.28
2018-02-05T14:57:17.770Z,102071.38
2018-02-05T14:59:45.150Z,102070.37
2018-02-05T15:02:12.554Z,102067.93
2018-02-05T15:04:39.977Z,102067.66
2018-02-05T15:07:07.363Z,102065.00
2018-02-05T15:09:34.752Z,102070.87
2018-02-05T15:12:02.154Z,102063.84
2018-02-05T15:14:29.550Z,102062.33
2018-02-05T15:16:57.595Z,102062.09
2018-02-05T15:19:25.058Z,102062.50
2018-02-05T15:21:52.514Z,102053.83
2018-02-05T15:24:19.898Z,102040.76
2018-02-05T15:26:47.303Z,102042.86
2018-02-05T15:29:14.778Z,102038.03
2018-02-05T15:31:42.234Z,102037.93
2018-02-05T15:34:09.616Z,102039.27
2018-02-05T15:36:37.020Z,102032.98
2018-02-05T15:39:04.394Z,102040.45
2018-02-05T15:41:31.838Z,102034.05
2018-02-05T15:43:59.238Z,102040.61
2018-02-05T15:46:26.665Z,102036.27
2018-02-05T15:48:54.066Z,102038.80
2018-02-05T15:51:21.448Z,102038.75
2018-02-05T15:53:48.834Z,102037.44
2018-02-05T15:56:16.222Z,102033.94
2018-02-05T15:58:43.626Z,102034.94
2018-02-05T16:01:11.027Z,102030.63
2018-02-05T16:03:38.415Z,102020.84
2018-02-05T16:06:05.807Z,102019.14
2018-02-05T16:08:33.227Z,102024.72
2018-02-05T16:11:00.622Z,102017.20
2018-02-05T16:13:28.072Z,102011.22
2018-02-05T16:15:55.446Z,102013.67
2018-02-05T16:18:22.888Z,102017.66
2018-02-05T16:20:50.270Z,102014.57
2018-02-05T16:23:17.664Z,102012.55
2018-02-05T16:25:45.046Z,102008.44
2018-02-05T16:28:12.502Z,102013.63
2018-02-05T16:30:39.886Z,102012.06
2018-02-05T16:33:07.266Z,102014.72
2018-02-05T16:35:34.649Z,102009.45
2018-02-05T16:38:02.039Z,102008.66
2018-02-05T16:40:29.427Z,102011.78
2018-02-05T16:42:56.814Z,102009.98
2018-02-05T16:45:24.199Z,102018.80
2018-02-05T16:47:51.584Z,102010.55
2018-02-05T16:50:18.974Z,102010.69
2018-02-05T16:52:46.456Z,102009.86
2018-02-05T16:55:13.855Z,102009.39
2018-02-05T16:57:41.233Z,102006.95
2018-02-05T17:00:08.630Z,102008.25
2018-02-05T17:02:36.013Z,102005.36
2018-02-05T17:05:03.426Z,102004.93
2018-02-05T17:07:30.810Z,102009.25
2018-02-05T17:09:58.235Z,102008.80
2018-02-05T17:12:25.694Z,102003.03
2018-02-05T17:14:53.140Z,102007.07
2018-02-05T17:17:20.519Z,102008.38
2018-02-05T17:19:47.910Z,102009.67
2018-02-05T17:22:15.302Z,102010.10
2018-02-05T17:24:42.680Z,102007.11
2018-02-05T17:27:10.067Z,102010.14
2018-02-05T17:29:37.441Z,102003.62
2018-02-05T17:32:04.839Z,102001.41
2018-02-05T17:34:32.225Z,102003.64
2018-02-05T17:36:59.910Z,102004.95
2018-02-05T17:39:27.380Z,102004.88
2018-02-05T17:41:54.826Z,102010.99
2018-02-05T17:44:22.216Z,102004.96
2018-02-05T17:46:49.638Z,102001.89
2018-02-05T17:49:17.030Z,102007.09
2018-02-05T17:51:44.446Z,102005.78
2018-02-05T17:54:11.831Z,101995.34
2018-02-05T17:56:39.249Z,101999.20
2018-02-05T17:59:06.705Z,101992.98
2018-02-05T18:01:34.162Z,101993.36
2018-02-05T18:04:01.566Z,101997.30
2018-02-05T18:06:28.958Z,101996.80
2018-02-05T18:08:56.347Z,101992.91
2018-02-05T18:11:23.868Z,101991.61
2018-02-05T18:13:51.382Z,101987.25
2018-02-05T18:16:18.806Z,101984.18
2018-02-05T18:18:46.198Z,101977.35
2018-02-05T18:21:13.629Z,101977.05
2018-02-05T18:23:41.001Z,101973.53
2018-02-05T18:26:08.386Z,101971.39
2018-02-05T18:28:35.769Z,101973.42
2018-02-05T18:31:03.158Z,101959.86
2018-02-05T18:33:30.546Z,101960.41
2018-02-05T18:35:57.930Z,101958.36
2018-02-05T18:38:25.406Z,101949.72
2018-02-05T18:40:52.842Z,101950.61
2018-02-05T18:43:20.322Z,101949.80
2018-02-05T18:45:47.698Z,101945.04
2018-02-05T18:48:15.095Z,101943.27
2018-02-05T18:50:42.478Z,101938.49
2018-02-05T18:53:09.934Z,101943.75
2018-02-05T18:55:37.327Z,101944.69
2018-02-05T18:58:04.726Z,101937.31
2018-02-05T19:00:44.134Z,101939.95
2018-02-05T19:03:11.582Z,101935.70
2018-02-05T19:05:38.962Z,101930.96
2018-02-05T19:08:06.453Z,101930.09
2018-02-05T19:10:33.847Z,101927.91
2018-02-05T19:13:01.239Z,101923.16
2018-02-05T19:15:28.715Z,101922.76
2018-02-05T19:17:56.107Z,101923.12
2018-02-05T19:20:23.531Z,101921.40
2018-02-05T19:22:51.003Z,101916.62
2018-02-05T19:25:18.370Z,101913.22
2018-02-05T19:27:45.751Z,101919.30
2018-02-05T19:30:13.142Z,101917.14
2018-02-05T19:32:40.570Z,101922.77
2018-02-05T19:35:08.034Z,101915.85
2018-02-05T19:37:35.458Z,101915.42
2018-02-05T19:40:02.870Z,101914.12
2018-02-05T19:42:30.257Z,101917.57
2018-02-05T19:44:57.635Z,101918.44
2018-02-05T19:47:25.022Z,101910.64
2018-02-05T19:49:52.494Z,101913.23
2018-02-05T19:52:19.878Z,101909.78
2018-02-05T19:54:47.268Z,101915.42
2018-02-05T19:57:14.659Z,101918.03
2018-02-05T19:59:42.034Z,101914.13
2018-02-05T20:02:09.428Z,101913.27
2018-02-05T20:04:36.922Z,101913.69
2018-02-05T20:07:04.313Z,101919.34
2018-02-05T20:09:31.702Z,101912.39
2018-02-05T20:11:59.877Z,101914.56
2018-02-05T20:14:27.359Z,101914.56
2018-02-05T20:16:54.750Z,101909.36
2018-02-05T20:19:22.125Z,101906.77
2018-02-05T20:21:49.524Z,101913.27
2018-02-05T20:24:16.996Z,101909.77
2018-02-05T20:26:44.367Z,101908.47
2018-02-05T20:29:11.750Z,101901.97
2018-02-05T20:31:39.149Z,101906.74
2018-02-05T20:34:06.542Z,101901.13
2018-02-05T20:36:34.070Z,101911.06
2018-02-05T20:39:01.450Z,101904.13
2018-02-05T20:41:28.838Z,101906.70
2018-02-05T20:43:56.234Z,101903.27
2018-02-05T20:46:23.614Z,101906.31
2018-02-05T20:48:51.019Z,101906.31
2018-02-05T20:51:18.400Z,101908.06
2018-02-05T20:53:45.778Z,101902.00
2018-02-05T20:56:13.173Z,101901.12
2018-02-05T20:58:40.550Z,101902.41
2018-02-05T21:01:07.942Z,101901.98
2018-02-05T21:03:35.341Z,101893.77
2018-02-05T21:06:02.818Z,101892.02
2018-02-05T21:08:30.215Z,101889.83
2018-02-05T21:10:57.635Z,101894.59
2018-02-05T21:13:25.030Z,101889.83
2018-02-05T21:15:52.407Z,101878.98
2018-02-05T21:18:19.807Z,101883.33
2018-02-05T21:20:47.195Z,101879.88
2018-02-05T21:23:14.585Z,101880.77
2018-02-05T21:25:42.004Z,101882.50
2018-02-05T21:28:09.410Z,101871.20
2018-02-05T21:30:36.798Z,101873.38
2018-02-05T21:33:04.197Z,101873.83
2018-02-05T21:35:31.578Z,101871.23
2018-02-05T21:37:58.975Z,101867.75
2018-02-05T21:40:26.358Z,101866.04
2018-02-05T21:42:53.753Z,101863.42
2018-02-05T21:45:21.141Z,101859.53
2018-02-05T21:47:48.530Z,101856.08
2018-02-05T21:50:15.920Z,101850.42
2018-02-05T21:52:43.354Z,101845.22
2018-02-05T21:55:10.749Z,101844.36
2018-02-05T21:57:38.189Z,101836.58
2018-02-05T22:00:05.635Z,101831.39
2018-02-05T22:02:33.030Z,101829.66
2018-02-05T22:05:00.472Z,101833.10
2018-02-05T22:07:27.903Z,101830.53
2018-02-05T22:09:55.294Z,101826.61
2018-02-05T22:12:22.690Z,101828.34
2018-02-05T22:14:50.094Z,101820.98
2018-02-05T22:17:17.481Z,101825.33
2018-02-05T22:19:44.862Z,101820.55
2018-02-05T22:22:12.376Z,101820.55
2018-02-05T22:24:39.766Z,101811.02
2018-02-05T22:27:07.178Z,101812.31
2018-02-05T22:29:34.662Z,101804.98
2018-02-05T22:32:02.043Z,101796.73
2018-02-05T22:34:29.466Z,101795.86
2018-02-05T22:36:56.930Z,101788.95
2018-02-05T22:39:24.326Z,101791.12
2018-02-05T22:41:51.707Z,101779.88
2018-02-05T22:44:19.103Z,101778.09
2018-02-05T22:46:46.495Z,101774.20
2018-02-05T22:49:13.881Z,101769.03
2018-02-05T22:51:41.299Z,101773.38
2018-02-05T22:54:08.667Z,101765.13
2018-02-05T22:56:36.058Z,101763.84
2018-02-05T22:59:03.446Z,101756.89
2018-02-05T23:01:30.891Z,101757.34
2018-02-05T23:03:58.279Z,101756.91
2018-02-05T23:06:25.667Z,101758.19
2018-02-05T23:08:53.072Z,101751.25
2018-02-05T23:11:20.489Z,101746.95
2018-02-05T23:13:47.882Z,101745.20
2018-02-05T23:16:15.302Z,101740.86
2018-02-05T23:18:42.694Z,101741.75
2018-02-05T23:21:10.119Z,101736.95
2018-02-05T23:23:37.510Z,101732.62
2018-02-05T23:26:04.891Z,101728.27
2018-02-05T23:28:32.382Z,101723.94
2018-02-05T23:30:59.762Z,101722.66
2018-02-05T23:33:27.153Z,101719.62
2018-02-05T23:35:54.547Z,101716.54
2018-02-05T23:38:21.998Z,101715.25
2018-02-05T23:40:49.382Z,101700.55
2018-02-05T23:43:16.777Z,101701.86
2018-02-05T23:45:44.169Z,101697.97
2018-02-05T23:48:11.558Z,101699.23
2018-02-05T23:50:38.950Z,101691.05
2018-02-05T23:53:06.337Z,101698.88
2018-02-05T23:55:33.738Z,101695.42
2018-02-05T23:58:01.147Z,101691.97
